Flying Dolphin Xxix — SW9853 — position and weather

sailwx.info

Track history (hours):
 
Tides and Currents Weather Stations Pressure Air Temp Water Temp Dewpoint Dewpoint Depression Visibility Wind Speed Wind Dir Waves Ship Positions

Flying Dolphin Xxix

Last reported at 2017-Nov-19 03:26 UTC. Time now 2017-Nov-20 17:07 UTC.
Position N 37°58' E 023°34'.

Length 34 m.

Type: High speed craft. MMSI: 237024500.

Date/timePositionNaut miles runAvg speedWind from/ knotsBaromVisibWave heightAir tempDewpointWater temp
2017-Nov-19 03:26N 37°58' E 023°34'0 0.0
2017-Nov-18 15:14N 37°58' E 023°34'0 0.0
2017-Nov-18 02:54N 37°58' E 023°34'0 0.0
2017-Nov-17 15:23N 37°58' E 023°34'0 0.0
2017-Nov-17 14:47N 37°58' E 023°34'0 0.0
2017-Nov-17 12:39N 37°58' E 023°34'0 1.0
2017-Nov-17 12:30N 37°58' E 023°34'2 3.4
2017-Nov-17 12:01N 37°56' E 023°35'2 3.6
2017-Nov-17 11:30N 37°58' E 023°34'0 0.0
2017-Nov-17 11:01N 37°58' E 023°34'0 0.0
2017-Nov-17 10:30N 37°58' E 023°34'4 7.7
2017-Nov-17 10:01N 37°54' E 023°36'3 5.9
2017-Nov-17 09:30N 37°57' E 023°35'1 2.1
2017-Nov-17 09:00N 37°58' E 023°34'0 0.0
2017-Nov-16 14:24N 37°58' E 023°34'0 0.0
2017-Nov-16 14:00N 37°58' E 023°34'0 0.0
2017-Nov-16 13:30N 37°58' E 023°34'0 0.0
2017-Nov-16 13:00N 37°58' E 023°34'0 0.0
2017-Nov-16 12:30N 37°58' E 023°34'0 0.0
2017-Nov-16 12:00N 37°58' E 023°34'0 0.0
2017-Nov-16 11:30N 37°58' E 023°34'0 0.0
2017-Nov-16 11:00N 37°58' E 023°34'0 0.0
2017-Nov-16 10:30N 37°58' E 023°34'0 0.0
2017-Nov-16 10:00N 37°58' E 023°34'0 0.0
2017-Nov-16 09:30N 37°58' E 023°34'0 0.0
2017-Nov-16 09:00N 37°58' E 023°34'  
2017-Nov-12 06:09N 37°58' E 023°34'0 0.0
2017-Nov-11 06:51N 37°58' E 023°34'0 0.0
2017-Nov-11 06:30N 37°58' E 023°34'0 0.0
2017-Nov-10 15:41N 37°58' E 023°34'0 0.1
2017-Nov-10 15:31N 37°58' E 023°34'0 0.0
2017-Nov-10 15:01N 37°58' E 023°34'0 0.0
2017-Nov-10 14:31N 37°58' E 023°34'0 0.0
2017-Nov-10 14:01N 37°58' E 023°34'0 0.0
2017-Nov-10 13:31N 37°58' E 023°34'0 0.0
2017-Nov-10 13:01N 37°58' E 023°34'0 0.0
2017-Nov-10 12:30N 37°58' E 023°34'0 0.0
2017-Nov-10 12:01N 37°58' E 023°34'0 0.0
2017-Nov-10 11:31N 37°58' E 023°34'0 0.0
2017-Nov-10 11:01N 37°58' E 023°34'0 0.0
2017-Nov-10 10:30N 37°58' E 023°34'0 0.0
2017-Nov-10 10:01N 37°58' E 023°34'0 0.0
2017-Nov-10 09:31N 37°58' E 023°34'0 0.0
2017-Nov-10 09:01N 37°58' E 023°34'0 0.0
2017-Nov-10 08:31N 37°58' E 023°34'0 0.0
2017-Nov-10 08:01N 37°58' E 023°34'0 0.0
2017-Nov-10 07:31N 37°58' E 023°34'0 0.0
2017-Nov-10 07:00N 37°58' E 023°34'0 0.0
2017-Nov-10 06:31N 37°58' E 023°34'0 0.0
2017-Nov-10 06:00N 37°58' E 023°34'0 0.0
2017-Nov-09 16:19N 37°58' E 023°34'0 0.0
2017-Nov-09 15:19N 37°58' E 023°34'0 0.0
2017-Nov-09 15:00N 37°58' E 023°34'0 0.0
2017-Nov-09 14:30N 37°58' E 023°34'0 0.0
2017-Nov-09 14:00N 37°58' E 023°34'0 0.0
2017-Nov-09 13:30N 37°58' E 023°34'0 0.0
2017-Nov-09 13:00N 37°58' E 023°34'0 0.0
2017-Nov-09 12:30N 37°58' E 023°34'0 0.0
2017-Nov-09 12:00N 37°58' E 023°34'0 0.0
2017-Nov-09 11:30N 37°58' E 023°34'0 0.0
2017-Nov-09 11:00N 37°58' E 023°34'0 0.0
2017-Nov-09 10:31N 37°58' E 023°34'0 0.0
2017-Nov-09 10:00N 37°58' E 023°34'0 0.0
2017-Nov-09 09:30N 37°58' E 023°34'0 0.0
2017-Nov-09 09:00N 37°58' E 023°34'0 0.0
2017-Nov-09 08:30N 37°58' E 023°34'0 0.0
2017-Nov-09 08:00N 37°58' E 023°34'0 0.0
2017-Nov-09 07:31N 37°58' E 023°34'0 0.0
2017-Nov-09 07:01N 37°58' E 023°34'0 0.0
2017-Nov-09 06:31N 37°58' E 023°34'  
Track history (hours):
 
Tides and Currents Weather Stations Pressure Air Temp Water Temp Dewpoint Dewpoint Depression Visibility Wind Speed Wind Dir Waves Ship Positions

Flying Dolphin Xxix

Last reported at 2017-Nov-19 03:26 UTC. Time now 2017-Nov-20 17:07 UTC.
Position N 37°58' E 023°34'.

Length 34 m.

Type: High speed craft. MMSI: 237024500.

Date/timePositionNaut miles runAvg speedWind from/ knotsBaromVisibWave heightAir tempDewpointWater temp
2017-Nov-19 03:26N 37°58' E 023°34'0 0.0
2017-Nov-18 15:14N 37°58' E 023°34'0 0.0
2017-Nov-18 02:54N 37°58' E 023°34'0 0.0
2017-Nov-17 15:23N 37°58' E 023°34'0 0.0
2017-Nov-17 14:47N 37°58' E 023°34'0 0.0
2017-Nov-17 12:39N 37°58' E 023°34'0 1.0
2017-Nov-17 12:30N 37°58' E 023°34'2 3.4
2017-Nov-17 12:01N 37°56' E 023°35'2 3.6
2017-Nov-17 11:30N 37°58' E 023°34'0 0.0
2017-Nov-17 11:01N 37°58' E 023°34'0 0.0
2017-Nov-17 10:30N 37°58' E 023°34'4 7.7
2017-Nov-17 10:01N 37°54' E 023°36'3 5.9
2017-Nov-17 09:30N 37°57' E 023°35'1 2.1
2017-Nov-17 09:00N 37°58' E 023°34'0 0.0
2017-Nov-16 14:24N 37°58' E 023°34'0 0.0
2017-Nov-16 14:00N 37°58' E 023°34'0 0.0
2017-Nov-16 13:30N 37°58' E 023°34'0 0.0
2017-Nov-16 13:00N 37°58' E 023°34'0 0.0
2017-Nov-16 12:30N 37°58' E 023°34'0 0.0
2017-Nov-16 12:00N 37°58' E 023°34'0 0.0
2017-Nov-16 11:30N 37°58' E 023°34'0 0.0
2017-Nov-16 11:00N 37°58' E 023°34'0 0.0
2017-Nov-16 10:30N 37°58' E 023°34'0 0.0
2017-Nov-16 10:00N 37°58' E 023°34'0 0.0
2017-Nov-16 09:30N 37°58' E 023°34'0 0.0
2017-Nov-16 09:00N 37°58' E 023°34'  
2017-Nov-12 06:09N 37°58' E 023°34'0 0.0
2017-Nov-11 06:51N 37°58' E 023°34'0 0.0
2017-Nov-11 06:30N 37°58' E 023°34'0 0.0
2017-Nov-10 15:41N 37°58' E 023°34'0 0.1
2017-Nov-10 15:31N 37°58' E 023°34'0 0.0
2017-Nov-10 15:01N 37°58' E 023°34'0 0.0
2017-Nov-10 14:31N 37°58' E 023°34'0 0.0
2017-Nov-10 14:01N 37°58' E 023°34'0 0.0
2017-Nov-10 13:31N 37°58' E 023°34'0 0.0
2017-Nov-10 13:01N 37°58' E 023°34'0 0.0
2017-Nov-10 12:30N 37°58' E 023°34'0 0.0
2017-Nov-10 12:01N 37°58' E 023°34'0 0.0
2017-Nov-10 11:31N 37°58' E 023°34'0 0.0
2017-Nov-10 11:01N 37°58' E 023°34'0 0.0
2017-Nov-10 10:30N 37°58' E 023°34'0 0.0
2017-Nov-10 10:01N 37°58' E 023°34'0 0.0
2017-Nov-10 09:31N 37°58' E 023°34'0 0.0
2017-Nov-10 09:01N 37°58' E 023°34'0 0.0
2017-Nov-10 08:31N 37°58' E 023°34'0 0.0
2017-Nov-10 08:01N 37°58' E 023°34'0 0.0
2017-Nov-10 07:31N 37°58' E 023°34'0 0.0
2017-Nov-10 07:00N 37°58' E 023°34'0 0.0
2017-Nov-10 06:31N 37°58' E 023°34'0 0.0
2017-Nov-10 06:00N 37°58' E 023°34'0 0.0
2017-Nov-09 16:19N 37°58' E 023°34'0 0.0
2017-Nov-09 15:19N 37°58' E 023°34'0 0.0
2017-Nov-09 15:00N 37°58' E 023°34'0 0.0
2017-Nov-09 14:30N 37°58' E 023°34'0 0.0
2017-Nov-09 14:00N 37°58' E 023°34'0 0.0
2017-Nov-09 13:30N 37°58' E 023°34'0 0.0
2017-Nov-09 13:00N 37°58' E 023°34'0 0.0
2017-Nov-09 12:30N 37°58' E 023°34'0 0.0
2017-Nov-09 12:00N 37°58' E 023°34'0 0.0
2017-Nov-09 11:30N 37°58' E 023°34'0 0.0
2017-Nov-09 11:00N 37°58' E 023°34'0 0.0
2017-Nov-09 10:31N 37°58' E 023°34'0 0.0
2017-Nov-09 10:00N 37°58' E 023°34'0 0.0
2017-Nov-09 09:30N 37°58' E 023°34'0 0.0
2017-Nov-09 09:00N 37°58' E 023°34'0 0.0
2017-Nov-09 08:30N 37°58' E 023°34'0 0.0
2017-Nov-09 08:00N 37°58' E 023°34'0 0.0
2017-Nov-09 07:31N 37°58' E 023°34'0 0.0
2017-Nov-09 07:01N 37°58' E 023°34'0 0.0
2017-Nov-09 06:31N 37°58' E 023°34'  

Dump ship's entire track history